Terminal Aerodrome Forecast
Issued by NWS

Home | Current Version | Previous Version | Text Only | Print | Product List | Glossary On
Versions: 1 2 3 4 5 6 7 8 9 10 11 12 13
089
FTUS46 KHNX 232320
TAFVIS
TAF
KVIS 232320Z 2400/2424 VRB04KT 5SM BR SCT200
     FM241200 VRB03KT 2SM BR SCT130
      TEMPO 2413/2417 1/2SM FG BKN003
     FM242100 32004KT 4SM BR BKN200=

USA.gov is the U.S. government's official web portal to all federal, state and local government web resources and services.